createdAt,value
2022-10-22T00:00:53.394Z,8.70
2022-10-22T00:03:21.451Z,7.88
2022-10-22T00:05:49.012Z,10.30
2022-10-22T00:08:16.975Z,8.57
2022-10-22T00:10:44.479Z,9.50
2022-10-22T00:13:12.549Z,6.93
2022-10-22T00:15:39.975Z,10.75
2022-10-22T00:18:08.270Z,13.40
2022-10-22T00:20:36.240Z,13.95
2022-10-22T00:23:03.895Z,8.85
2022-10-22T00:25:32.073Z,6.65
2022-10-22T00:27:59.565Z,10.07
2022-10-22T00:30:27.469Z,11.85
2022-10-22T00:32:55.387Z,8.50
2022-10-22T00:35:23.262Z,8.02
2022-10-22T00:37:51.254Z,14.15
2022-10-22T00:40:19.081Z,9.43
2022-10-22T00:42:46.966Z,14.43
2022-10-22T00:45:24.806Z,9.07
2022-10-22T00:48:09.218Z,12.30
2022-10-22T00:50:41.495Z,12.95
2022-10-22T00:53:11.478Z,12.68
2022-10-22T00:55:40.210Z,15.07
2022-10-22T00:58:08.303Z,11.63
2022-10-22T01:00:36.647Z,10.10
2022-10-22T01:03:04.673Z,13.57
2022-10-22T01:05:54.150Z,14.00
2022-10-22T01:08:44.100Z,14.05
2022-10-22T01:11:32.859Z,13.18
2022-10-22T01:14:13.230Z,10.20
2022-10-22T01:17:08.379Z,7.40
2022-10-22T01:19:42.715Z,8.07
2022-10-22T01:22:30.627Z,15.23
2022-10-22T01:25:16.460Z,13.48
2022-10-22T01:27:53.974Z,10.82
2022-10-22T01:30:22.574Z,12.90
2022-10-22T01:32:52.069Z,11.57
2022-10-22T01:35:28.886Z,14.85
2022-10-22T01:38:00.447Z,13.63
2022-10-22T01:40:29.945Z,11.60
2022-10-22T01:43:02.836Z,13.18
2022-10-22T01:45:36.467Z,12.57
2022-10-22T01:48:14.966Z,12.88
2022-10-22T01:50:43.079Z,16.05
2022-10-22T01:53:37.930Z,13.18
2022-10-22T01:56:16.731Z,11.05
2022-10-22T01:58:44.306Z,13.73
2022-10-22T02:01:30.965Z,13.68
2022-10-22T02:04:19.637Z,13.68
2022-10-22T02:06:51.098Z,11.77
2022-10-22T02:09:21.758Z,12.38
2022-10-22T02:11:50.501Z,13.63
2022-10-22T02:14:19.686Z,13.05
2022-10-22T02:16:49.819Z,14.45
2022-10-22T02:19:26.881Z,9.73
2022-10-22T02:21:55.235Z,15.90
2022-10-22T02:24:23.446Z,13.65
2022-10-22T02:27:08.682Z,10.10
2022-10-22T02:30:10.130Z,13.48
2022-10-22T02:32:52.167Z,12.30
2022-10-22T02:35:22.947Z,10.82
2022-10-22T02:37:51.938Z,6.20
2022-10-22T02:40:20.210Z,11.63
2022-10-22T02:42:49.021Z,11.27
2022-10-22T02:45:18.591Z,13.40
2022-10-22T02:47:47.197Z,13.50
2022-10-22T02:50:15.222Z,10.82
2022-10-22T02:52:43.305Z,11.25
2022-10-22T02:55:11.001Z,12.90
2022-10-22T02:57:39.134Z,8.95
2022-10-22T03:00:08.966Z,12.48
2022-10-22T03:02:36.886Z,11.65
2022-10-22T03:05:05.059Z,6.97
2022-10-22T03:07:32.861Z,6.90
2022-10-22T03:10:00.353Z,5.88
2022-10-22T03:12:27.844Z,5.50
2022-10-22T03:14:55.315Z,3.92
2022-10-22T03:17:23.226Z,4.90
2022-10-22T03:19:51.108Z,4.55
2022-10-22T03:22:32.526Z,6.78
2022-10-22T03:25:03.841Z,7.97
2022-10-22T03:27:31.322Z,5.05
2022-10-22T03:29:59.573Z,5.38
2022-10-22T03:32:26.969Z,2.42
2022-10-22T03:34:54.949Z,6.10
2022-10-22T03:37:24.927Z,3.30
2022-10-22T03:39:54.092Z,8.05
2022-10-22T03:42:22.489Z,8.13
2022-10-22T03:44:50.459Z,7.93
2022-10-22T03:47:18.105Z,6.85
2022-10-22T03:49:45.618Z,5.60
2022-10-22T03:52:14.563Z,5.70
2022-10-22T03:54:42.540Z,9.13
2022-10-22T03:57:10.937Z,8.88
2022-10-22T03:59:40.553Z,9.05
2022-10-22T04:02:08.535Z,11.45
2022-10-22T04:04:37.103Z,6.53
2022-10-22T04:07:06.668Z,7.82
2022-10-22T04:09:35.027Z,7.45
2022-10-22T04:12:02.832Z,8.52
2022-10-22T04:14:30.670Z,8.68
2022-10-22T04:16:58.094Z,6.88
2022-10-22T04:19:25.647Z,12.18
2022-10-22T04:21:53.159Z,11.45
2022-10-22T04:24:21.086Z,10.05
2022-10-22T04:26:48.881Z,10.80
2022-10-22T04:29:16.717Z,12.90
2022-10-22T04:31:44.523Z,9.70
2022-10-22T04:34:12.011Z,8.48
2022-10-22T04:36:39.565Z,12.98
2022-10-22T04:39:07.565Z,12.85
2022-10-22T04:41:38.198Z,10.15
2022-10-22T04:44:07.596Z,12.10
2022-10-22T04:46:37.186Z,12.77
2022-10-22T04:49:05.175Z,11.18
2022-10-22T04:51:33.450Z,13.52
2022-10-22T04:54:01.053Z,12.80
2022-10-22T04:56:30.589Z,12.27
2022-10-22T04:59:03.108Z,14.85
2022-10-22T05:01:36.947Z,16.23
2022-10-22T05:04:09.202Z,11.25
2022-10-22T05:06:37.478Z,16.17
2022-10-22T05:09:07.391Z,15.23
2022-10-22T05:11:37.046Z,16.70
2022-10-22T05:14:06.311Z,10.50
2022-10-22T05:16:34.719Z,9.57
2022-10-22T05:19:03.508Z,11.52
2022-10-22T05:21:31.510Z,13.45
2022-10-22T05:24:02.142Z,20.17
2022-10-22T05:26:29.993Z,13.77
2022-10-22T05:28:57.568Z,13.57
2022-10-22T05:31:25.138Z,15.60
2022-10-22T05:33:53.078Z,16.23
2022-10-22T05:36:22.476Z,11.32
2022-10-22T05:38:50.726Z,12.52
2022-10-22T05:41:20.865Z,11.70
2022-10-22T05:43:48.917Z,9.30
2022-10-22T05:46:22.896Z,9.55
2022-10-22T05:49:01.175Z,20.42
2022-10-22T05:51:30.839Z,14.20
2022-10-22T05:54:02.695Z,13.85
2022-10-22T05:56:32.180Z,12.88
2022-10-22T05:59:00.884Z,14.60
2022-10-22T06:01:31.323Z,10.23
2022-10-22T06:04:00.947Z,15.35
2022-10-22T06:06:30.969Z,12.48
2022-10-22T06:09:01.978Z,15.60
2022-10-22T06:11:32.535Z,13.38
2022-10-22T06:14:03.271Z,13.57
2022-10-22T06:16:31.617Z,20.25
2022-10-22T06:19:03.500Z,13.60
2022-10-22T06:21:32.647Z,14.07
2022-10-22T06:24:01.951Z,14.95
2022-10-22T06:26:29.613Z,14.43
2022-10-22T06:28:57.670Z,17.38
2022-10-22T06:31:26.391Z,18.13
2022-10-22T06:33:54.013Z,14.15
2022-10-22T06:36:23.284Z,15.75
2022-10-22T06:38:55.031Z,19.83
2022-10-22T06:41:25.777Z,18.48
2022-10-22T06:43:58.017Z,19.67
2022-10-22T06:46:27.060Z,15.95
2022-10-22T06:48:58.737Z,18.63
2022-10-22T06:53:55.090Z,16.75
2022-10-22T06:56:23.722Z,11.63
2022-10-22T06:58:52.877Z,14.13
2022-10-22T07:01:23.520Z,14.95
2022-10-22T07:03:52.334Z,21.63
2022-10-22T07:06:20.641Z,16.25
2022-10-22T07:08:48.508Z,14.80
2022-10-22T07:11:19.065Z,14.93
2022-10-22T07:13:47.277Z,11.98
2022-10-22T07:16:15.351Z,23.33
2022-10-22T07:18:43.688Z,19.52
2022-10-22T07:21:12.585Z,18.85
2022-10-22T07:23:40.282Z,14.00
2022-10-22T07:26:08.681Z,14.35
2022-10-22T07:28:39.789Z,16.63
2022-10-22T07:31:09.010Z,20.00
2022-10-22T07:33:37.199Z,17.23
2022-10-22T07:36:07.576Z,28.55
2022-10-22T07:38:35.717Z,15.07
2022-10-22T07:41:03.858Z,19.98
2022-10-22T07:43:31.333Z,13.32
2022-10-22T07:46:00.391Z,14.80
2022-10-22T07:48:28.201Z,15.18
2022-10-22T07:50:55.978Z,14.63
2022-10-22T07:53:23.592Z,14.50
2022-10-22T07:55:52.094Z,15.07
2022-10-22T07:58:20.498Z,12.43
2022-10-22T08:00:49.605Z,11.27
2022-10-22T08:03:18.526Z,14.07
2022-10-22T08:05:46.489Z,13.93
2022-10-22T08:08:15.206Z,14.57
2022-10-22T08:10:43.271Z,21.27
2022-10-22T08:13:11.202Z,14.80
2022-10-22T08:15:39.210Z,12.25
2022-10-22T08:18:07.163Z,13.13
2022-10-22T08:20:35.001Z,12.95
2022-10-22T08:23:02.825Z,13.50
2022-10-22T08:25:31.002Z,18.70
2022-10-22T08:27:58.872Z,17.75
2022-10-22T08:30:27.835Z,15.95
2022-10-22T08:32:55.815Z,11.50
2022-10-22T08:35:23.838Z,12.95
2022-10-22T08:37:51.310Z,14.13
2022-10-22T08:40:50.188Z,12.40
2022-10-22T08:43:36.885Z,14.95
2022-10-22T08:46:31.396Z,11.52
2022-10-22T08:49:01.768Z,14.85
2022-10-22T08:51:35.858Z,12.10
2022-10-22T08:54:07.054Z,12.65
2022-10-22T08:56:37.228Z,11.65
2022-10-22T08:59:09.563Z,13.48
2022-10-22T09:01:45.630Z,14.13
2022-10-22T09:04:33.537Z,19.65
2022-10-22T09:07:01.495Z,13.85
2022-10-22T09:09:39.147Z,14.95
2022-10-22T09:12:08.625Z,14.30
2022-10-22T09:14:36.803Z,13.80
2022-10-22T09:17:04.955Z,17.95
2022-10-22T09:19:39.030Z,12.25
2022-10-22T09:22:20.588Z,18.23
2022-10-22T09:27:30.296Z,14.88
2022-10-22T09:29:58.239Z,13.35
2022-10-22T09:32:26.227Z,16.38
2022-10-22T09:34:58.092Z,16.73
2022-10-22T09:37:28.364Z,9.77
2022-10-22T09:39:58.881Z,12.18
2022-10-22T09:42:26.793Z,11.95
2022-10-22T09:44:59.788Z,17.58
2022-10-22T09:47:43.570Z,12.20
2022-10-22T09:50:38.897Z,14.15
2022-10-22T09:53:18.926Z,13.07
2022-10-22T09:58:23.656Z,12.18
2022-10-22T10:00:59.467Z,14.32
2022-10-22T10:03:31.205Z,11.82
2022-10-22T10:06:04.756Z,11.50
2022-10-22T10:08:34.092Z,14.38
2022-10-22T10:11:49.188Z,14.55
2022-10-22T10:14:40.363Z,14.02
2022-10-22T10:17:10.690Z,13.05
2022-10-22T10:20:01.369Z,11.45
2022-10-22T10:22:52.182Z,12.57
2022-10-22T10:25:45.766Z,13.30
2022-10-22T10:28:23.758Z,13.68
2022-10-22T10:31:06.921Z,13.00
2022-10-22T10:33:48.557Z,15.57
2022-10-22T10:38:49.251Z,10.70
2022-10-22T10:41:28.061Z,18.27
2022-10-22T10:44:16.827Z,19.98
2022-10-22T10:46:47.299Z,11.40
2022-10-22T10:49:25.635Z,12.52
2022-10-22T10:52:20.466Z,14.40
2022-10-22T10:55:08.640Z,12.50
2022-10-22T10:57:53.965Z,11.50
2022-10-22T11:00:22.954Z,15.98
2022-10-22T11:03:09.418Z,12.82
2022-10-22T11:05:51.852Z,12.10
2022-10-22T11:08:22.062Z,10.25
2022-10-22T11:10:55.745Z,13.65
2022-10-22T11:13:23.706Z,9.10
2022-10-22T11:15:56.121Z,13.30
2022-10-22T11:18:39.151Z,10.55
2022-10-22T11:21:34.203Z,9.35
2022-10-22T11:24:11.114Z,13.98
2022-10-22T11:27:01.950Z,14.48
2022-10-22T11:29:35.267Z,8.03
2022-10-22T11:32:03.702Z,5.90
2022-10-22T11:34:36.305Z,11.68
2022-10-22T11:37:04.874Z,10.35
2022-10-22T11:39:41.022Z,10.00
2022-10-22T11:42:37.163Z,15.02
2022-10-22T11:45:06.906Z,12.00
2022-10-22T11:47:53.139Z,9.57
2022-10-22T11:50:26.043Z,7.78
2022-10-22T11:53:07.834Z,12.05
2022-10-22T11:55:50.587Z,17.27
2022-10-22T11:58:29.591Z,12.05
2022-10-22T12:01:09.206Z,10.20
2022-10-22T12:03:42.866Z,11.23
2022-10-22T12:06:15.712Z,13.98
2022-10-22T12:08:46.591Z,12.77
2022-10-22T12:11:34.433Z,14.07
2022-10-22T12:14:14.323Z,13.80
2022-10-22T12:17:01.729Z,12.27
2022-10-22T12:19:39.801Z,11.38
2022-10-22T12:22:10.800Z,11.57
2022-10-22T12:24:41.367Z,15.60
2022-10-22T12:27:22.598Z,9.23
2022-10-22T12:29:56.511Z,9.68
2022-10-22T12:32:29.228Z,11.95
2022-10-22T12:34:57.189Z,12.68
2022-10-22T12:37:24.966Z,13.38
2022-10-22T12:39:52.773Z,9.80
2022-10-22T12:42:21.960Z,11.50
2022-10-22T12:44:55.573Z,9.98
2022-10-22T12:47:23.590Z,11.23
2022-10-22T12:49:51.475Z,8.68
2022-10-22T12:52:22.215Z,11.73
2022-10-22T12:54:55.072Z,9.88
2022-10-22T12:57:24.741Z,10.55
2022-10-22T12:59:52.542Z,7.85
2022-10-22T13:02:24.843Z,11.35
2022-10-22T13:05:23.243Z,10.82
2022-10-22T13:08:05.525Z,11.05
2022-10-22T13:10:35.846Z,14.48
2022-10-22T13:13:06.343Z,8.60
2022-10-22T13:15:34.621Z,8.25
2022-10-22T13:18:33.015Z,14.27
2022-10-22T13:21:03.185Z,8.75
2022-10-22T13:23:33.265Z,9.55
2022-10-22T13:26:23.134Z,8.55
2022-10-22T13:28:56.204Z,7.97
2022-10-22T13:31:37.803Z,9.73
2022-10-22T13:36:41.471Z,11.57
2022-10-22T13:39:13.819Z,10.82
2022-10-22T13:41:41.633Z,10.35
2022-10-22T13:44:09.048Z,10.05
2022-10-22T13:46:42.915Z,10.13
2022-10-22T13:49:16.718Z,9.73
2022-10-22T13:51:44.934Z,8.95
2022-10-22T13:54:21.568Z,9.43
2022-10-22T13:56:49.211Z,11.05
2022-10-22T13:59:19.776Z,10.25
2022-10-22T14:01:55.849Z,7.22
2022-10-22T14:04:23.406Z,6.60
2022-10-22T14:06:50.920Z,6.63
2022-10-22T14:09:19.302Z,9.75
2022-10-22T14:11:47.154Z,9.88
2022-10-22T14:14:17.323Z,8.95
2022-10-22T14:16:44.993Z,8.93
2022-10-22T14:19:16.789Z,11.00
2022-10-22T14:21:44.538Z,6.15
2022-10-22T14:24:13.384Z,8.00
2022-10-22T14:26:41.623Z,8.45
2022-10-22T14:29:10.672Z,10.32
2022-10-22T14:34:15.104Z,9.70
2022-10-22T14:36:46.113Z,6.60
2022-10-22T14:39:14.096Z,9.15
2022-10-22T14:41:41.828Z,12.75
2022-10-22T14:44:13.904Z,8.20
2022-10-22T14:46:43.985Z,7.90
2022-10-22T14:49:11.632Z,8.77
2022-10-22T14:51:39.251Z,8.20
2022-10-22T14:54:07.214Z,7.45
2022-10-22T14:56:38.591Z,6.78
2022-10-22T15:01:33.655Z,14.98
2022-10-22T15:04:01.196Z,8.05
2022-10-22T15:06:29.175Z,11.73
2022-10-22T15:08:56.991Z,12.85
2022-10-22T15:11:25.003Z,9.35
2022-10-22T15:13:52.687Z,12.75
2022-10-22T15:16:20.334Z,12.52
2022-10-22T15:18:48.364Z,11.32
2022-10-22T15:21:18.372Z,9.95
2022-10-22T15:23:45.947Z,11.65
2022-10-22T15:26:14.270Z,12.93
2022-10-22T15:28:42.876Z,9.27
2022-10-22T15:31:14.294Z,12.05
2022-10-22T15:36:14.605Z,8.82
2022-10-22T15:38:42.353Z,10.43
2022-10-22T15:41:12.677Z,9.65
2022-10-22T15:43:40.256Z,12.55
2022-10-22T15:46:12.023Z,11.30
2022-10-22T15:48:39.815Z,13.18
2022-10-22T15:51:12.973Z,10.35
2022-10-22T15:53:41.212Z,9.85
2022-10-22T15:56:11.651Z,12.93
2022-10-22T15:58:39.238Z,11.73
2022-10-22T16:01:09.090Z,13.52
2022-10-22T16:03:37.249Z,13.02
2022-10-22T16:06:05.372Z,9.00
2022-10-22T16:08:33.321Z,12.65
2022-10-22T16:11:01.262Z,10.25
2022-10-22T16:13:29.295Z,11.10
2022-10-22T16:15:57.125Z,17.25
2022-10-22T16:18:24.960Z,10.77
2022-10-22T16:20:52.815Z,12.63
2022-10-22T16:23:20.954Z,8.73
2022-10-22T16:25:48.819Z,16.90
2022-10-22T16:28:16.504Z,16.70
2022-10-22T16:30:44.794Z,11.77
2022-10-22T16:33:12.971Z,14.25
2022-10-22T16:35:41.663Z,10.32
2022-10-22T16:38:10.679Z,17.77
2022-10-22T16:40:38.939Z,14.68
2022-10-22T16:43:06.856Z,9.35
2022-10-22T16:45:34.694Z,13.02
2022-10-22T16:48:02.671Z,12.40
2022-10-22T16:50:30.458Z,12.70
2022-10-22T16:52:57.890Z,13.43
2022-10-22T16:55:25.439Z,14.10
2022-10-22T16:57:53.534Z,13.25
2022-10-22T17:00:21.452Z,12.95
2022-10-22T17:02:53.971Z,14.30
2022-10-22T17:05:21.803Z,18.13
2022-10-22T17:07:49.869Z,16.38
2022-10-22T17:10:19.648Z,17.52
2022-10-22T17:12:48.026Z,14.45
2022-10-22T17:15:15.887Z,15.30
2022-10-22T17:17:48.283Z,14.30
2022-10-22T17:20:16.259Z,19.08
2022-10-22T17:22:43.867Z,25.08
2022-10-22T17:25:17.481Z,18.60
2022-10-22T17:27:45.810Z,16.70
2022-10-22T17:30:16.567Z,16.98
2022-10-22T17:32:44.844Z,23.30
2022-10-22T17:35:12.771Z,17.67
2022-10-22T17:37:40.913Z,15.95
2022-10-22T17:40:09.245Z,16.20
2022-10-22T17:42:37.242Z,20.85
2022-10-22T17:45:05.305Z,21.45
2022-10-22T17:47:33.182Z,21.48
2022-10-22T17:50:00.974Z,16.35
2022-10-22T17:52:28.859Z,23.85
2022-10-22T17:54:56.622Z,23.77
2022-10-22T17:57:24.158Z,16.00
2022-10-22T17:59:52.127Z,19.33
2022-10-22T18:02:19.583Z,21.08
2022-10-22T18:04:51.166Z,21.42
2022-10-22T18:07:20.710Z,15.00
2022-10-22T18:09:48.780Z,18.55
2022-10-22T18:12:18.103Z,20.25
2022-10-22T18:14:47.098Z,11.70
2022-10-22T18:19:49.471Z,17.15
2022-10-22T18:22:17.139Z,15.48
2022-10-22T18:24:45.140Z,17.33
2022-10-22T18:27:12.928Z,15.82
2022-10-22T18:29:41.032Z,21.92
2022-10-22T18:32:12.976Z,18.45
2022-10-22T18:34:41.333Z,16.67
2022-10-22T18:37:09.288Z,21.52
2022-10-22T18:39:37.326Z,18.33
2022-10-22T18:42:07.260Z,13.18
2022-10-22T18:44:35.829Z,16.67
2022-10-22T18:47:03.513Z,18.20
2022-10-22T18:49:31.029Z,20.80
2022-10-22T18:51:58.996Z,22.55
2022-10-22T18:54:26.636Z,15.73
2022-10-22T18:57:00.523Z,21.83
2022-10-22T18:59:31.214Z,24.95
2022-10-22T19:01:59.725Z,21.55
2022-10-22T19:04:33.217Z,18.33
2022-10-22T19:07:01.206Z,18.95
2022-10-22T19:09:29.189Z,15.48
2022-10-22T19:11:57.163Z,15.90
2022-10-22T19:14:25.146Z,20.63
2022-10-22T19:16:53.414Z,16.27
2022-10-22T19:19:22.375Z,19.65
2022-10-22T19:21:50.334Z,21.27
2022-10-22T19:24:19.515Z,16.42
2022-10-22T19:26:48.329Z,20.75
2022-10-22T19:29:16.986Z,24.50
2022-10-22T19:31:45.888Z,17.75
2022-10-22T19:34:14.200Z,17.17
2022-10-22T19:36:41.786Z,26.20
2022-10-22T19:39:09.371Z,21.33
2022-10-22T19:41:37.342Z,17.70
2022-10-22T19:44:05.226Z,20.92
2022-10-22T19:46:33.098Z,25.38
2022-10-22T19:49:03.433Z,26.23
2022-10-22T19:51:33.895Z,34.95
2022-10-22T19:54:07.109Z,26.00
2022-10-22T19:56:36.187Z,22.65
2022-10-22T19:59:04.938Z,24.67
2022-10-22T20:01:32.666Z,22.90
2022-10-22T20:04:01.488Z,22.33
2022-10-22T20:06:29.693Z,18.52
2022-10-22T20:08:58.229Z,25.30
2022-10-22T20:11:28.347Z,22.40
2022-10-22T20:13:56.853Z,16.75
2022-10-22T20:16:28.548Z,20.00
2022-10-22T20:19:00.874Z,18.60
2022-10-22T20:21:29.240Z,22.05
2022-10-22T20:23:57.582Z,19.98
2022-10-22T20:26:28.040Z,18.40
2022-10-22T20:28:56.941Z,21.90
2022-10-22T20:31:27.909Z,24.20
2022-10-22T20:34:01.395Z,19.15
2022-10-22T20:36:30.746Z,30.60
2022-10-22T20:39:07.291Z,22.60
2022-10-22T20:41:37.732Z,22.05
2022-10-22T20:44:05.355Z,22.35
2022-10-22T20:46:33.483Z,20.60
2022-10-22T20:49:04.976Z,28.17
2022-10-22T20:54:00.013Z,22.98
2022-10-22T20:56:28.233Z,25.92
2022-10-22T20:59:04.677Z,22.65
2022-10-22T21:01:49.791Z,24.38
2022-10-22T21:04:19.680Z,24.15
2022-10-22T21:06:48.682Z,22.25
2022-10-22T21:09:17.054Z,22.48
2022-10-22T21:11:45.068Z,23.33
2022-10-22T21:14:14.513Z,21.23
2022-10-22T21:16:47.037Z,20.33
2022-10-22T21:19:14.954Z,21.65
2022-10-22T21:21:43.011Z,21.58
2022-10-22T21:24:10.875Z,19.60
2022-10-22T21:26:39.038Z,21.65
2022-10-22T21:29:07.096Z,21.58
2022-10-22T21:31:34.882Z,19.70
2022-10-22T21:34:02.349Z,22.20
2022-10-22T21:36:29.822Z,22.55
2022-10-22T21:38:57.380Z,22.23
2022-10-22T21:41:25.389Z,20.52
2022-10-22T21:43:53.325Z,25.73
2022-10-22T21:46:22.468Z,20.75
2022-10-22T21:48:57.870Z,18.73
2022-10-22T21:51:25.804Z,21.63
2022-10-22T21:53:53.875Z,17.10
2022-10-22T21:56:22.962Z,20.48
2022-10-22T21:58:51.041Z,23.88
2022-10-22T22:01:19.349Z,17.50
2022-10-22T22:03:49.340Z,15.55
2022-10-22T22:06:21.362Z,20.70
2022-10-22T22:08:52.049Z,22.30
2022-10-22T22:11:24.906Z,22.45
2022-10-22T22:13:54.106Z,17.08
2022-10-22T22:16:28.647Z,18.48
2022-10-22T22:19:01.734Z,19.67
2022-10-22T22:21:29.738Z,18.88
2022-10-22T22:23:58.166Z,23.88
2022-10-22T22:26:29.623Z,17.63
2022-10-22T22:28:59.248Z,20.17
2022-10-22T22:31:32.557Z,14.77
2022-10-22T22:34:02.074Z,19.10
2022-10-22T22:36:33.783Z,19.77
2022-10-22T22:39:01.771Z,17.05
2022-10-22T22:41:29.243Z,19.98
2022-10-22T22:43:57.166Z,28.27
2022-10-22T22:46:25.142Z,13.02
2022-10-22T22:48:52.954Z,17.55
2022-10-22T22:51:20.533Z,18.15
2022-10-22T22:53:48.280Z,14.18
2022-10-22T22:56:17.239Z,16.05
2022-10-22T22:58:45.367Z,13.48
2022-10-22T23:01:28.221Z,13.43
2022-10-22T23:04:19.365Z,14.55
2022-10-22T23:06:47.375Z,16.08
2022-10-22T23:09:16.372Z,10.70
2022-10-22T23:11:44.800Z,13.85
2022-10-22T23:14:15.493Z,7.40
2022-10-22T23:16:46.194Z,10.48
2022-10-22T23:19:16.057Z,16.42
2022-10-22T23:22:01.888Z,12.55
2022-10-22T23:24:30.171Z,10.20
2022-10-22T23:27:00.940Z,12.90
2022-10-22T23:29:33.942Z,15.05
2022-10-22T23:32:04.296Z,16.13
2022-10-22T23:34:32.367Z,14.20
2022-10-22T23:37:00.317Z,15.65
2022-10-22T23:39:28.959Z,12.57
2022-10-22T23:41:57.002Z,11.50
2022-10-22T23:44:25.147Z,18.63
2022-10-22T23:46:52.979Z,15.00
2022-10-22T23:49:20.442Z,15.45
2022-10-22T23:51:47.995Z,14.38
2022-10-22T23:54:18.400Z,14.30
2022-10-22T23:56:46.426Z,16.75
